sensor_id;sensor_type;location;lat;lon;timestamp;P1;durP1;ratioP1;P2;durP2;ratioP2
26080;SDS011;13991;51.174;4.438;2023-09-19T00:01:39;15.93;;;2.17;;
26080;SDS011;13991;51.174;4.438;2023-09-19T00:04:06;21.83;;;2.90;;
26080;SDS011;13991;51.174;4.438;2023-09-19T00:06:34;19.63;;;2.23;;
26080;SDS011;13991;51.174;4.438;2023-09-19T00:09:01;13.97;;;2.33;;
26080;SDS011;13991;51.174;4.438;2023-09-19T00:11:28;22.43;;;2.90;;
26080;SDS011;13991;51.174;4.438;2023-09-19T00:13:54;30.53;;;2.47;;
26080;SDS011;13991;51.174;4.438;2023-09-19T00:16:19;16.27;;;1.83;;
26080;SDS011;13991;51.174;4.438;2023-09-19T00:18:46;17.07;;;2.67;;
26080;SDS011;13991;51.174;4.438;2023-09-19T00:21:13;17.20;;;2.20;;
26080;SDS011;13991;51.174;4.438;2023-09-19T00:23:47;23.30;;;2.13;;
26080;SDS011;13991;51.174;4.438;2023-09-19T00:26:14;21.10;;;2.20;;
26080;SDS011;13991;51.174;4.438;2023-09-19T00:28:39;17.17;;;2.20;;
26080;SDS011;13991;51.174;4.438;2023-09-19T00:31:07;21.57;;;2.43;;
26080;SDS011;13991;51.174;4.438;2023-09-19T00:33:33;13.20;;;2.27;;
26080;SDS011;13991;51.174;4.438;2023-09-19T00:35:59;15.07;;;1.67;;
26080;SDS011;13991;51.174;4.438;2023-09-19T00:38:29;26.93;;;2.90;;
26080;SDS011;13991;51.174;4.438;2023-09-19T00:40:57;18.60;;;3.03;;
26080;SDS011;13991;51.174;4.438;2023-09-19T00:43:24;18.30;;;2.33;;
26080;SDS011;13991;51.174;4.438;2023-09-19T00:45:54;18.13;;;1.97;;
26080;SDS011;13991;51.174;4.438;2023-09-19T00:48:26;27.57;;;2.27;;
26080;SDS011;13991;51.174;4.438;2023-09-19T00:50:53;21.73;;;2.03;;
26080;SDS011;13991;51.174;4.438;2023-09-19T00:53:21;13.43;;;1.60;;
26080;SDS011;13991;51.174;4.438;2023-09-19T00:55:49;28.07;;;2.10;;
26080;SDS011;13991;51.174;4.438;2023-09-19T00:58:18;9.60;;;1.53;;
26080;SDS011;13991;51.174;4.438;2023-09-19T01:00:46;10.53;;;1.37;;
26080;SDS011;13991;51.174;4.438;2023-09-19T01:03:15;7.23;;;1.30;;
26080;SDS011;13991;51.174;4.438;2023-09-19T01:05:44;22.57;;;2.23;;
26080;SDS011;13991;51.174;4.438;2023-09-19T01:08:10;14.90;;;2.33;;
26080;SDS011;13991;51.174;4.438;2023-09-19T01:10:59;17.33;;;2.30;;
26080;SDS011;13991;51.174;4.438;2023-09-19T01:14:15;13.33;;;1.90;;
26080;SDS011;13991;51.174;4.438;2023-09-19T01:16:56;15.10;;;1.60;;
26080;SDS011;13991;51.174;4.438;2023-09-19T01:30:35;17.03;;;1.97;;
26080;SDS011;13991;51.174;4.438;2023-09-19T01:33:08;17.90;;;1.90;;
26080;SDS011;13991;51.174;4.438;2023-09-19T01:35:37;16.97;;;2.37;;
26080;SDS011;13991;51.174;4.438;2023-09-19T01:38:05;18.00;;;2.27;;
26080;SDS011;13991;51.174;4.438;2023-09-19T01:40:34;14.47;;;2.27;;
26080;SDS011;13991;51.174;4.438;2023-09-19T01:43:12;17.87;;;1.80;;
26080;SDS011;13991;51.174;4.438;2023-09-19T01:46:14;21.90;;;2.63;;
26080;SDS011;13991;51.174;4.438;2023-09-19T01:48:49;18.80;;;2.77;;
26080;SDS011;13991;51.174;4.438;2023-09-19T01:51:31;13.07;;;2.00;;
26080;SDS011;13991;51.174;4.438;2023-09-19T01:54:27;22.17;;;2.07;;
26080;SDS011;13991;51.174;4.438;2023-09-19T01:57:01;15.73;;;2.90;;
26080;SDS011;13991;51.174;4.438;2023-09-19T01:59:35;15.00;;;1.70;;
26080;SDS011;13991;51.174;4.438;2023-09-19T02:02:06;19.17;;;2.07;;
26080;SDS011;13991;51.174;4.438;2023-09-19T02:04:33;14.47;;;1.77;;
26080;SDS011;13991;51.174;4.438;2023-09-19T02:07:00;15.70;;;3.07;;
26080;SDS011;13991;51.174;4.438;2023-09-19T02:09:26;21.33;;;2.27;;
26080;SDS011;13991;51.174;4.438;2023-09-19T02:11:52;18.67;;;2.40;;
26080;SDS011;13991;51.174;4.438;2023-09-19T02:14:21;17.07;;;1.73;;
26080;SDS011;13991;51.174;4.438;2023-09-19T02:16:53;13.80;;;2.50;;
26080;SDS011;13991;51.174;4.438;2023-09-19T02:19:22;17.73;;;1.57;;
26080;SDS011;13991;51.174;4.438;2023-09-19T02:21:56;14.17;;;2.17;;
26080;SDS011;13991;51.174;4.438;2023-09-19T02:24:22;21.00;;;1.97;;
26080;SDS011;13991;51.174;4.438;2023-09-19T02:26:51;15.97;;;2.50;;
26080;SDS011;13991;51.174;4.438;2023-09-19T02:29:17;19.20;;;2.37;;
26080;SDS011;13991;51.174;4.438;2023-09-19T02:31:45;15.53;;;1.90;;
26080;SDS011;13991;51.174;4.438;2023-09-19T02:34:13;11.10;;;1.90;;
26080;SDS011;13991;51.174;4.438;2023-09-19T02:36:45;22.83;;;1.73;;
26080;SDS011;13991;51.174;4.438;2023-09-19T02:39:11;14.97;;;1.70;;
26080;SDS011;13991;51.174;4.438;2023-09-19T02:41:38;28.07;;;2.77;;
26080;SDS011;13991;51.174;4.438;2023-09-19T02:44:04;15.50;;;1.97;;
26080;SDS011;13991;51.174;4.438;2023-09-19T02:46:36;23.27;;;2.20;;
26080;SDS011;13991;51.174;4.438;2023-09-19T02:49:02;21.67;;;1.77;;
26080;SDS011;13991;51.174;4.438;2023-09-19T02:51:31;17.60;;;2.53;;
26080;SDS011;13991;51.174;4.438;2023-09-19T02:53:58;15.70;;;1.90;;
26080;SDS011;13991;51.174;4.438;2023-09-19T02:56:24;10.10;;;1.87;;
26080;SDS011;13991;51.174;4.438;2023-09-19T02:58:55;16.00;;;1.80;;
26080;SDS011;13991;51.174;4.438;2023-09-19T03:01:25;18.97;;;1.97;;
26080;SDS011;13991;51.174;4.438;2023-09-19T03:03:51;14.53;;;2.20;;
26080;SDS011;13991;51.174;4.438;2023-09-19T03:06:18;27.03;;;2.97;;
26080;SDS011;13991;51.174;4.438;2023-09-19T03:08:45;11.83;;;1.70;;
26080;SDS011;13991;51.174;4.438;2023-09-19T03:11:13;16.63;;;2.00;;
26080;SDS011;13991;51.174;4.438;2023-09-19T03:13:43;15.40;;;2.77;;
26080;SDS011;13991;51.174;4.438;2023-09-19T03:16:10;21.20;;;2.43;;
26080;SDS011;13991;51.174;4.438;2023-09-19T03:18:36;19.03;;;2.53;;
26080;SDS011;13991;51.174;4.438;2023-09-19T03:21:02;20.87;;;2.17;;
26080;SDS011;13991;51.174;4.438;2023-09-19T03:23:29;15.90;;;2.20;;
26080;SDS011;13991;51.174;4.438;2023-09-19T03:25:58;28.90;;;2.37;;
26080;SDS011;13991;51.174;4.438;2023-09-19T03:28:24;16.33;;;2.70;;
26080;SDS011;13991;51.174;4.438;2023-09-19T03:31:03;24.63;;;2.60;;
26080;SDS011;13991;51.174;4.438;2023-09-19T03:33:30;18.40;;;2.60;;
26080;SDS011;13991;51.174;4.438;2023-09-19T03:35:59;18.23;;;2.17;;
26080;SDS011;13991;51.174;4.438;2023-09-19T03:38:31;17.40;;;2.43;;
26080;SDS011;13991;51.174;4.438;2023-09-19T03:40:57;21.63;;;2.80;;
26080;SDS011;13991;51.174;4.438;2023-09-19T03:43:26;20.17;;;2.57;;
26080;SDS011;13991;51.174;4.438;2023-09-19T03:45:53;20.90;;;2.20;;
26080;SDS011;13991;51.174;4.438;2023-09-19T03:48:22;17.53;;;2.07;;
26080;SDS011;13991;51.174;4.438;2023-09-19T03:50:51;19.77;;;2.43;;
26080;SDS011;13991;51.174;4.438;2023-09-19T03:53:17;20.53;;;2.43;;
26080;SDS011;13991;51.174;4.438;2023-09-19T03:55:44;13.07;;;2.13;;
26080;SDS011;13991;51.174;4.438;2023-09-19T03:58:11;17.07;;;2.70;;
26080;SDS011;13991;51.174;4.438;2023-09-19T04:00:36;15.70;;;2.07;;
26080;SDS011;13991;51.174;4.438;2023-09-19T04:03:05;12.53;;;2.77;;
26080;SDS011;13991;51.174;4.438;2023-09-19T04:05:31;25.40;;;2.90;;
26080;SDS011;13991;51.174;4.438;2023-09-19T04:07:58;24.97;;;2.70;;
26080;SDS011;13991;51.174;4.438;2023-09-19T04:10:24;16.90;;;2.47;;
26080;SDS011;13991;51.174;4.438;2023-09-19T04:12:52;14.47;;;1.80;;
26080;SDS011;13991;51.174;4.438;2023-09-19T04:15:19;23.67;;;2.50;;
26080;SDS011;13991;51.174;4.438;2023-09-19T04:17:47;19.23;;;2.87;;
26080;SDS011;13991;51.174;4.438;2023-09-19T04:20:14;20.67;;;2.60;;
26080;SDS011;13991;51.174;4.438;2023-09-19T04:22:41;20.37;;;2.20;;
26080;SDS011;13991;51.174;4.438;2023-09-19T04:25:06;20.63;;;2.00;;
26080;SDS011;13991;51.174;4.438;2023-09-19T04:27:36;14.90;;;1.80;;
26080;SDS011;13991;51.174;4.438;2023-09-19T04:30:06;18.77;;;1.90;;
26080;SDS011;13991;51.174;4.438;2023-09-19T04:32:36;27.30;;;2.33;;
26080;SDS011;13991;51.174;4.438;2023-09-19T04:35:09;16.53;;;2.17;;
26080;SDS011;13991;51.174;4.438;2023-09-19T04:37:37;21.67;;;3.10;;
26080;SDS011;13991;51.174;4.438;2023-09-19T04:40:12;18.00;;;1.97;;
26080;SDS011;13991;51.174;4.438;2023-09-19T04:42:44;19.13;;;2.23;;
26080;SDS011;13991;51.174;4.438;2023-09-19T04:45:11;30.87;;;2.77;;
26080;SDS011;13991;51.174;4.438;2023-09-19T04:47:37;20.93;;;2.63;;
26080;SDS011;13991;51.174;4.438;2023-09-19T04:50:13;12.87;;;2.03;;
26080;SDS011;13991;51.174;4.438;2023-09-19T04:52:45;20.80;;;2.57;;
26080;SDS011;13991;51.174;4.438;2023-09-19T04:55:15;19.23;;;2.80;;
26080;SDS011;13991;51.174;4.438;2023-09-19T04:57:46;19.70;;;2.63;;
26080;SDS011;13991;51.174;4.438;2023-09-19T05:00:14;19.73;;;2.53;;
26080;SDS011;13991;51.174;4.438;2023-09-19T05:02:42;31.50;;;2.70;;
26080;SDS011;13991;51.174;4.438;2023-09-19T05:05:09;22.47;;;2.70;;
26080;SDS011;13991;51.174;4.438;2023-09-19T05:07:41;16.93;;;2.13;;
26080;SDS011;13991;51.174;4.438;2023-09-19T05:10:08;27.03;;;3.23;;
26080;SDS011;13991;51.174;4.438;2023-09-19T05:12:35;22.10;;;2.57;;
26080;SDS011;13991;51.174;4.438;2023-09-19T05:15:04;19.47;;;2.63;;
26080;SDS011;13991;51.174;4.438;2023-09-19T05:17:34;24.90;;;3.20;;
26080;SDS011;13991;51.174;4.438;2023-09-19T05:20:03;21.70;;;1.97;;
26080;SDS011;13991;51.174;4.438;2023-09-19T05:22:40;29.30;;;2.03;;
26080;SDS011;13991;51.174;4.438;2023-09-19T05:25:06;27.33;;;3.10;;
26080;SDS011;13991;51.174;4.438;2023-09-19T05:27:32;24.03;;;3.00;;
26080;SDS011;13991;51.174;4.438;2023-09-19T05:29:58;25.13;;;2.67;;
26080;SDS011;13991;51.174;4.438;2023-09-19T05:32:24;21.90;;;2.50;;
26080;SDS011;13991;51.174;4.438;2023-09-19T05:34:50;21.83;;;2.47;;
26080;SDS011;13991;51.174;4.438;2023-09-19T05:37:21;20.97;;;1.93;;
26080;SDS011;13991;51.174;4.438;2023-09-19T05:39:48;16.63;;;2.37;;
26080;SDS011;13991;51.174;4.438;2023-09-19T05:42:14;18.70;;;2.50;;
26080;SDS011;13991;51.174;4.438;2023-09-19T05:44:41;21.40;;;2.60;;
26080;SDS011;13991;51.174;4.438;2023-09-19T05:52:11;24.03;;;2.53;;
26080;SDS011;13991;51.174;4.438;2023-09-19T05:54:36;25.57;;;2.60;;
26080;SDS011;13991;51.174;4.438;2023-09-19T05:57:03;27.90;;;2.73;;
26080;SDS011;13991;51.174;4.438;2023-09-19T06:04:40;17.50;;;2.27;;
26080;SDS011;13991;51.174;4.438;2023-09-19T06:07:06;30.43;;;3.00;;
26080;SDS011;13991;51.174;4.438;2023-09-19T06:14:51;34.70;;;2.60;;
26080;SDS011;13991;51.174;4.438;2023-09-19T06:17:18;19.00;;;2.20;;
26080;SDS011;13991;51.174;4.438;2023-09-19T06:19:44;32.63;;;3.33;;
26080;SDS011;13991;51.174;4.438;2023-09-19T06:22:14;21.73;;;2.37;;
26080;SDS011;13991;51.174;4.438;2023-09-19T06:25:19;31.50;;;2.43;;
26080;SDS011;13991;51.174;4.438;2023-09-19T06:27:53;20.13;;;2.57;;
26080;SDS011;13991;51.174;4.438;2023-09-19T06:33:43;21.37;;;2.97;;
26080;SDS011;13991;51.174;4.438;2023-09-19T06:42:55;25.20;;;2.50;;
26080;SDS011;13991;51.174;4.438;2023-09-19T06:45:23;20.20;;;2.70;;
26080;SDS011;13991;51.174;4.438;2023-09-19T06:47:52;7.33;;;1.93;;
26080;SDS011;13991;51.174;4.438;2023-09-19T06:50:31;16.73;;;2.27;;
26080;SDS011;13991;51.174;4.438;2023-09-19T06:52:59;29.93;;;2.67;;
26080;SDS011;13991;51.174;4.438;2023-09-19T06:58:04;24.47;;;2.80;;
26080;SDS011;13991;51.174;4.438;2023-09-19T07:00:31;26.77;;;2.53;;
26080;SDS011;13991;51.174;4.438;2023-09-19T07:03:02;20.87;;;2.67;;
26080;SDS011;13991;51.174;4.438;2023-09-19T07:12:02;21.33;;;2.03;;
26080;SDS011;13991;51.174;4.438;2023-09-19T07:14:28;14.07;;;2.03;;
26080;SDS011;13991;51.174;4.438;2023-09-19T07:17:02;19.67;;;2.30;;
26080;SDS011;13991;51.174;4.438;2023-09-19T07:19:28;21.57;;;2.50;;
26080;SDS011;13991;51.174;4.438;2023-09-19T07:21:55;20.47;;;1.73;;
26080;SDS011;13991;51.174;4.438;2023-09-19T07:24:21;29.50;;;2.53;;
26080;SDS011;13991;51.174;4.438;2023-09-19T07:26:49;18.47;;;2.40;;
26080;SDS011;13991;51.174;4.438;2023-09-19T07:29:15;12.73;;;1.23;;
26080;SDS011;13991;51.174;4.438;2023-09-19T07:31:41;21.90;;;2.27;;
26080;SDS011;13991;51.174;4.438;2023-09-19T07:34:07;14.07;;;1.93;;
26080;SDS011;13991;51.174;4.438;2023-09-19T07:36:41;20.43;;;2.33;;
26080;SDS011;13991;51.174;4.438;2023-09-19T07:39:07;20.77;;;3.17;;
26080;SDS011;13991;51.174;4.438;2023-09-19T07:51:54;14.97;;;2.20;;
26080;SDS011;13991;51.174;4.438;2023-09-19T07:54:29;25.33;;;2.20;;
26080;SDS011;13991;51.174;4.438;2023-09-19T07:57:02;21.13;;;2.20;;
26080;SDS011;13991;51.174;4.438;2023-09-19T08:02:18;16.40;;;2.43;;
26080;SDS011;13991;51.174;4.438;2023-09-19T08:04:44;19.80;;;2.30;;
26080;SDS011;13991;51.174;4.438;2023-09-19T08:12:24;23.60;;;2.60;;
26080;SDS011;13991;51.174;4.438;2023-09-19T08:14:50;25.00;;;2.10;;
26080;SDS011;13991;51.174;4.438;2023-09-19T08:17:16;26.27;;;2.50;;
26080;SDS011;13991;51.174;4.438;2023-09-19T08:19:41;19.47;;;2.20;;
26080;SDS011;13991;51.174;4.438;2023-09-19T08:22:10;36.93;;;3.80;;
26080;SDS011;13991;51.174;4.438;2023-09-19T08:24:36;21.47;;;2.67;;
26080;SDS011;13991;51.174;4.438;2023-09-19T08:27:03;19.77;;;2.40;;
26080;SDS011;13991;51.174;4.438;2023-09-19T08:29:34;21.67;;;3.03;;
26080;SDS011;13991;51.174;4.438;2023-09-19T08:32:08;21.17;;;2.83;;
26080;SDS011;13991;51.174;4.438;2023-09-19T08:37:09;8.60;;;1.80;;
26080;SDS011;13991;51.174;4.438;2023-09-19T08:39:41;17.03;;;2.27;;
26080;SDS011;13991;51.174;4.438;2023-09-19T08:42:08;22.37;;;2.10;;
26080;SDS011;13991;51.174;4.438;2023-09-19T08:44:36;15.07;;;2.10;;
26080;SDS011;13991;51.174;4.438;2023-09-19T08:57:23;21.40;;;2.53;;
26080;SDS011;13991;51.174;4.438;2023-09-19T08:59:49;22.03;;;2.37;;
26080;SDS011;13991;51.174;4.438;2023-09-19T09:02:16;32.07;;;2.17;;
26080;SDS011;13991;51.174;4.438;2023-09-19T09:05:04;28.60;;;2.73;;
26080;SDS011;13991;51.174;4.438;2023-09-19T09:07:30;22.63;;;2.27;;
26080;SDS011;13991;51.174;4.438;2023-09-19T09:10:05;20.90;;;1.97;;
26080;SDS011;13991;51.174;4.438;2023-09-19T09:12:38;21.77;;;2.03;;
26080;SDS011;13991;51.174;4.438;2023-09-19T09:15:06;25.50;;;3.37;;
26080;SDS011;13991;51.174;4.438;2023-09-19T09:30:34;23.27;;;2.30;;
26080;SDS011;13991;51.174;4.438;2023-09-19T09:33:12;31.30;;;2.50;;
26080;SDS011;13991;51.174;4.438;2023-09-19T09:38:23;27.17;;;2.83;;
26080;SDS011;13991;51.174;4.438;2023-09-19T09:40:52;21.10;;;1.90;;
26080;SDS011;13991;51.174;4.438;2023-09-19T09:43:41;17.87;;;1.70;;
26080;SDS011;13991;51.174;4.438;2023-09-19T09:46:11;15.37;;;1.40;;
26080;SDS011;13991;51.174;4.438;2023-09-19T09:52:21;23.67;;;2.03;;
26080;SDS011;13991;51.174;4.438;2023-09-19T09:54:34;8.77;;;1.60;;
26080;SDS011;13991;51.174;4.438;2023-09-19T09:57:10;12.90;;;1.90;;
26080;SDS011;13991;51.174;4.438;2023-09-19T09:59:49;17.00;;;1.77;;
26080;SDS011;13991;51.174;4.438;2023-09-19T10:02:29;13.47;;;1.90;;
26080;SDS011;13991;51.174;4.438;2023-09-19T10:08:12;16.37;;;1.63;;
26080;SDS011;13991;51.174;4.438;2023-09-19T10:10:43;15.30;;;1.60;;
26080;SDS011;13991;51.174;4.438;2023-09-19T10:13:19;17.30;;;1.80;;
26080;SDS011;13991;51.174;4.438;2023-09-19T10:18:26;15.03;;;1.67;;
26080;SDS011;13991;51.174;4.438;2023-09-19T10:21:09;7.07;;;1.10;;
26080;SDS011;13991;51.174;4.438;2023-09-19T10:23:38;15.47;;;1.70;;
26080;SDS011;13991;51.174;4.438;2023-09-19T10:26:26;17.23;;;1.43;;
26080;SDS011;13991;51.174;4.438;2023-09-19T10:31:38;12.27;;;2.00;;
26080;SDS011;13991;51.174;4.438;2023-09-19T10:34:11;13.20;;;1.73;;
26080;SDS011;13991;51.174;4.438;2023-09-19T10:36:58;17.80;;;1.90;;
26080;SDS011;13991;51.174;4.438;2023-09-19T10:47:17;20.17;;;1.20;;
26080;SDS011;13991;51.174;4.438;2023-09-19T10:49:44;9.73;;;1.57;;
26080;SDS011;13991;51.174;4.438;2023-09-19T10:52:12;10.57;;;1.30;;
26080;SDS011;13991;51.174;4.438;2023-09-19T10:54:46;14.87;;;1.50;;
26080;SDS011;13991;51.174;4.438;2023-09-19T10:57:19;6.67;;;1.00;;
26080;SDS011;13991;51.174;4.438;2023-09-19T11:00:03;9.50;;;1.20;;
26080;SDS011;13991;51.174;4.438;2023-09-19T11:05:37;12.13;;;1.10;;
26080;SDS011;13991;51.174;4.438;2023-09-19T11:08:09;12.17;;;0.83;;
26080;SDS011;13991;51.174;4.438;2023-09-19T11:10:46;6.13;;;1.00;;
26080;SDS011;13991;51.174;4.438;2023-09-19T11:13:25;12.93;;;0.63;;
26080;SDS011;13991;51.174;4.438;2023-09-19T11:26:48;8.27;;;1.30;;
26080;SDS011;13991;51.174;4.438;2023-09-19T11:29:30;14.18;;;1.30;;
26080;SDS011;13991;51.174;4.438;2023-09-19T11:31:56;20.83;;;1.30;;
26080;SDS011;13991;51.174;4.438;2023-09-19T11:34:37;10.05;;;1.02;;
26080;SDS011;13991;51.174;4.438;2023-09-19T11:39:37;10.48;;;0.93;;
26080;SDS011;13991;51.174;4.438;2023-09-19T11:45:06;16.40;;;1.70;;
26080;SDS011;13991;51.174;4.438;2023-09-19T11:47:32;10.23;;;1.10;;
26080;SDS011;13991;51.174;4.438;2023-09-19T11:50:00;5.83;;;0.80;;
26080;SDS011;13991;51.174;4.438;2023-09-19T11:52:26;6.50;;;0.50;;
26080;SDS011;13991;51.174;4.438;2023-09-19T11:54:59;12.30;;;1.20;;
26080;SDS011;13991;51.174;4.438;2023-09-19T11:57:27;6.43;;;0.50;;
26080;SDS011;13991;51.174;4.438;2023-09-19T11:59:55;8.63;;;0.70;;
26080;SDS011;13991;51.174;4.438;2023-09-19T12:02:54;13.20;;;0.67;;
26080;SDS011;13991;51.174;4.438;2023-09-19T12:05:15;8.50;;;1.00;;
26080;SDS011;13991;51.174;4.438;2023-09-19T12:07:42;11.97;;;1.23;;
26080;SDS011;13991;51.174;4.438;2023-09-19T12:10:11;6.97;;;1.33;;
26080;SDS011;13991;51.174;4.438;2023-09-19T12:12:39;12.90;;;0.70;;
26080;SDS011;13991;51.174;4.438;2023-09-19T12:15:07;9.83;;;0.70;;
26080;SDS011;13991;51.174;4.438;2023-09-19T12:20:04;8.43;;;0.70;;
26080;SDS011;13991;51.174;4.438;2023-09-19T12:22:42;2.37;;;0.50;;
26080;SDS011;13991;51.174;4.438;2023-09-19T12:25:09;6.27;;;0.70;;
26080;SDS011;13991;51.174;4.438;2023-09-19T12:30:12;7.80;;;0.80;;
26080;SDS011;13991;51.174;4.438;2023-09-19T12:32:43;22.75;;;0.90;;
26080;SDS011;13991;51.174;4.438;2023-09-19T12:35:09;10.07;;;0.93;;
26080;SDS011;13991;51.174;4.438;2023-09-19T12:37:36;15.73;;;1.17;;
26080;SDS011;13991;51.174;4.438;2023-09-19T12:40:06;6.93;;;0.70;;
26080;SDS011;13991;51.174;4.438;2023-09-19T12:42:40;13.23;;;1.33;;
26080;SDS011;13991;51.174;4.438;2023-09-19T12:45:07;10.07;;;0.70;;
26080;SDS011;13991;51.174;4.438;2023-09-19T12:47:40;9.97;;;0.80;;
26080;SDS011;13991;51.174;4.438;2023-09-19T12:50:26;3.13;;;0.67;;
26080;SDS011;13991;51.174;4.438;2023-09-19T12:52:54;8.07;;;1.07;;
26080;SDS011;13991;51.174;4.438;2023-09-19T12:55:30;6.10;;;0.73;;
26080;SDS011;13991;51.174;4.438;2023-09-19T12:58:14;9.40;;;1.03;;
26080;SDS011;13991;51.174;4.438;2023-09-19T13:00:44;10.47;;;0.93;;
26080;SDS011;13991;51.174;4.438;2023-09-19T13:03:11;6.90;;;0.70;;
26080;SDS011;13991;51.174;4.438;2023-09-19T13:08:32;6.50;;;0.73;;
26080;SDS011;13991;51.174;4.438;2023-09-19T13:13:43;9.80;;;1.00;;
26080;SDS011;13991;51.174;4.438;2023-09-19T13:16:13;11.43;;;0.60;;
26080;SDS011;13991;51.174;4.438;2023-09-19T13:18:50;9.47;;;1.50;;
26080;SDS011;13991;51.174;4.438;2023-09-19T13:21:26;4.67;;;0.80;;
26080;SDS011;13991;51.174;4.438;2023-09-19T13:24:23;5.90;;;0.77;;
26080;SDS011;13991;51.174;4.438;2023-09-19T13:26:53;7.03;;;0.90;;
26080;SDS011;13991;51.174;4.438;2023-09-19T13:29:19;12.57;;;0.90;;
26080;SDS011;13991;51.174;4.438;2023-09-19T13:31:48;14.83;;;1.17;;
26080;SDS011;13991;51.174;4.438;2023-09-19T13:34:21;13.70;;;1.20;;
26080;SDS011;13991;51.174;4.438;2023-09-19T13:36:46;12.63;;;1.03;;
26080;SDS011;13991;51.174;4.438;2023-09-19T13:39:15;9.33;;;0.93;;
26080;SDS011;13991;51.174;4.438;2023-09-19T13:41:42;7.83;;;0.80;;
26080;SDS011;13991;51.174;4.438;2023-09-19T13:44:10;8.90;;;1.67;;
26080;SDS011;13991;51.174;4.438;2023-09-19T13:46:36;20.77;;;0.97;;
26080;SDS011;13991;51.174;4.438;2023-09-19T13:49:02;8.50;;;0.80;;
26080;SDS011;13991;51.174;4.438;2023-09-19T13:51:31;3.90;;;0.93;;
26080;SDS011;13991;51.174;4.438;2023-09-19T13:53:57;15.93;;;1.67;;
26080;SDS011;13991;51.174;4.438;2023-09-19T13:56:24;6.63;;;1.03;;
26080;SDS011;13991;51.174;4.438;2023-09-19T13:58:53;6.90;;;0.67;;
26080;SDS011;13991;51.174;4.438;2023-09-19T14:01:19;11.10;;;1.70;;
26080;SDS011;13991;51.174;4.438;2023-09-19T14:03:45;5.83;;;1.10;;
26080;SDS011;13991;51.174;4.438;2023-09-19T14:06:15;8.60;;;1.10;;
26080;SDS011;13991;51.174;4.438;2023-09-19T14:08:41;10.67;;;1.00;;
26080;SDS011;13991;51.174;4.438;2023-09-19T14:11:07;5.20;;;1.00;;
26080;SDS011;13991;51.174;4.438;2023-09-19T14:13:33;9.27;;;1.38;;
26080;SDS011;13991;51.174;4.438;2023-09-19T14:16:05;12.90;;;1.33;;
26080;SDS011;13991;51.174;4.438;2023-09-19T14:18:33;6.17;;;0.93;;
26080;SDS011;13991;51.174;4.438;2023-09-19T14:21:03;6.03;;;1.00;;
26080;SDS011;13991;51.174;4.438;2023-09-19T14:23:33;6.10;;;0.60;;
26080;SDS011;13991;51.174;4.438;2023-09-19T14:26:03;9.77;;;1.17;;
26080;SDS011;13991;51.174;4.438;2023-09-19T14:28:30;6.27;;;0.77;;
26080;SDS011;13991;51.174;4.438;2023-09-19T14:30:56;8.77;;;1.00;;
26080;SDS011;13991;51.174;4.438;2023-09-19T14:33:21;13.27;;;1.27;;
26080;SDS011;13991;51.174;4.438;2023-09-19T14:35:47;15.30;;;1.30;;
26080;SDS011;13991;51.174;4.438;2023-09-19T14:38:12;5.83;;;1.03;;
26080;SDS011;13991;51.174;4.438;2023-09-19T14:40:39;11.10;;;0.97;;
26080;SDS011;13991;51.174;4.438;2023-09-19T14:43:05;9.48;;;1.10;;
26080;SDS011;13991;51.174;4.438;2023-09-19T14:45:35;7.03;;;1.07;;
26080;SDS011;13991;51.174;4.438;2023-09-19T14:48:01;7.10;;;1.13;;
26080;SDS011;13991;51.174;4.438;2023-09-19T14:50:30;11.40;;;1.20;;
26080;SDS011;13991;51.174;4.438;2023-09-19T14:52:56;8.20;;;1.37;;
26080;SDS011;13991;51.174;4.438;2023-09-19T14:55:23;8.40;;;0.93;;
26080;SDS011;13991;51.174;4.438;2023-09-19T14:57:49;17.20;;;1.03;;
26080;SDS011;13991;51.174;4.438;2023-09-19T15:00:17;8.43;;;1.10;;
26080;SDS011;13991;51.174;4.438;2023-09-19T15:02:45;6.20;;;1.07;;
26080;SDS011;13991;51.174;4.438;2023-09-19T15:05:13;9.83;;;1.53;;
26080;SDS011;13991;51.174;4.438;2023-09-19T15:07:40;5.53;;;1.37;;
26080;SDS011;13991;51.174;4.438;2023-09-19T15:10:06;5.60;;;1.03;;
26080;SDS011;13991;51.174;4.438;2023-09-19T15:12:37;15.40;;;1.30;;
26080;SDS011;13991;51.174;4.438;2023-09-19T15:15:04;13.63;;;1.27;;
26080;SDS011;13991;51.174;4.438;2023-09-19T15:17:35;13.77;;;2.00;;
26080;SDS011;13991;51.174;4.438;2023-09-19T15:20:01;9.90;;;1.70;;
26080;SDS011;13991;51.174;4.438;2023-09-19T15:22:27;8.83;;;1.27;;
26080;SDS011;13991;51.174;4.438;2023-09-19T15:24:53;9.70;;;1.77;;
26080;SDS011;13991;51.174;4.438;2023-09-19T15:27:18;9.67;;;1.63;;
26080;SDS011;13991;51.174;4.438;2023-09-19T15:29:45;13.93;;;1.60;;
26080;SDS011;13991;51.174;4.438;2023-09-19T15:32:11;11.47;;;1.60;;
26080;SDS011;13991;51.174;4.438;2023-09-19T15:34:37;7.23;;;1.20;;
26080;SDS011;13991;51.174;4.438;2023-09-19T15:37:02;11.73;;;1.00;;
26080;SDS011;13991;51.174;4.438;2023-09-19T15:39:31;16.07;;;1.43;;
26080;SDS011;13991;51.174;4.438;2023-09-19T15:41:58;5.43;;;0.90;;
26080;SDS011;13991;51.174;4.438;2023-09-19T15:44:24;21.73;;;1.97;;
26080;SDS011;13991;51.174;4.438;2023-09-19T15:46:53;12.40;;;1.17;;
26080;SDS011;13991;51.174;4.438;2023-09-19T15:49:18;15.47;;;1.70;;
26080;SDS011;13991;51.174;4.438;2023-09-19T15:51:44;10.20;;;1.33;;
26080;SDS011;13991;51.174;4.438;2023-09-19T15:54:13;16.73;;;1.80;;
26080;SDS011;13991;51.174;4.438;2023-09-19T15:56:40;15.17;;;1.60;;
26080;SDS011;13991;51.174;4.438;2023-09-19T15:59:07;14.13;;;1.10;;
26080;SDS011;13991;51.174;4.438;2023-09-19T16:01:39;10.57;;;1.43;;
26080;SDS011;13991;51.174;4.438;2023-09-19T16:04:07;10.83;;;1.33;;
26080;SDS011;13991;51.174;4.438;2023-09-19T16:06:34;13.93;;;1.50;;
26080;SDS011;13991;51.174;4.438;2023-09-19T16:09:00;15.97;;;2.50;;
26080;SDS011;13991;51.174;4.438;2023-09-19T16:11:29;7.87;;;1.67;;
26080;SDS011;13991;51.174;4.438;2023-09-19T16:13:56;13.03;;;1.70;;
26080;SDS011;13991;51.174;4.438;2023-09-19T16:16:22;9.30;;;1.20;;
26080;SDS011;13991;51.174;4.438;2023-09-19T16:18:50;11.67;;;1.33;;
26080;SDS011;13991;51.174;4.438;2023-09-19T16:21:24;12.20;;;1.47;;
26080;SDS011;13991;51.174;4.438;2023-09-19T16:23:52;15.93;;;1.63;;
26080;SDS011;13991;51.174;4.438;2023-09-19T16:26:20;8.47;;;1.30;;
26080;SDS011;13991;51.174;4.438;2023-09-19T16:28:50;21.47;;;2.13;;
26080;SDS011;13991;51.174;4.438;2023-09-19T16:31:17;15.33;;;1.30;;
26080;SDS011;13991;51.174;4.438;2023-09-19T16:33:44;20.97;;;1.87;;
26080;SDS011;13991;51.174;4.438;2023-09-19T16:36:12;15.27;;;2.00;;
26080;SDS011;13991;51.174;4.438;2023-09-19T16:38:42;18.27;;;1.93;;
26080;SDS011;13991;51.174;4.438;2023-09-19T16:41:11;14.83;;;2.13;;
26080;SDS011;13991;51.174;4.438;2023-09-19T16:43:38;12.63;;;1.80;;
26080;SDS011;13991;51.174;4.438;2023-09-19T16:46:04;12.30;;;1.53;;
26080;SDS011;13991;51.174;4.438;2023-09-19T16:48:36;18.17;;;1.90;;
26080;SDS011;13991;51.174;4.438;2023-09-19T16:51:03;7.53;;;0.93;;
26080;SDS011;13991;51.174;4.438;2023-09-19T16:53:32;11.77;;;1.23;;
26080;SDS011;13991;51.174;4.438;2023-09-19T16:56:02;15.77;;;1.57;;
26080;SDS011;13991;51.174;4.438;2023-09-19T16:58:34;10.43;;;1.20;;
26080;SDS011;13991;51.174;4.438;2023-09-19T17:01:03;10.67;;;1.50;;
26080;SDS011;13991;51.174;4.438;2023-09-19T17:03:34;17.50;;;1.20;;
26080;SDS011;13991;51.174;4.438;2023-09-19T17:06:00;16.97;;;2.03;;
26080;SDS011;13991;51.174;4.438;2023-09-19T17:08:26;18.20;;;1.87;;
26080;SDS011;13991;51.174;4.438;2023-09-19T17:11:03;11.97;;;1.57;;
26080;SDS011;13991;51.174;4.438;2023-09-19T17:13:34;8.30;;;1.40;;
26080;SDS011;13991;51.174;4.438;2023-09-19T17:18:28;9.20;;;1.50;;